UDPAV weather

Campo di Volo "Fly Evolution"
Pavia di Udine (UD), Friuli-Venezia Giulia, Italy

Public forecast

Using degrees Celsius for public forecast. Weather courtesy of forecast.io.

Closest aviation weather report (METAR) to Campo di Volo "Fly Evolution"

Closest report is Rivolto Air Base, 10.8 nm (19.9 km) W. Retrieved 2020/01/29 09:55 UTC (41 minutes ago):

LIPI 290955Z 03006KT 8000 FEW015 SCT020 08/04 Q1009 RMK SCT VIS MIN 7000S WIND THR06 06006KT WIND THR24 05006KT WHT

Closest aviation forecast (TAF) to Campo di Volo "Fly Evolution"

Forecast is more than 12 hours old.

Closest forecast is Rivolto Air Base, 10.8 nm (19.9 km) W. Retrieved 2020/01/23 12:24 UTC (6 days ago):

TAF TAF LIPI 231100Z 2312/2324 06010KT CAVOK